EZY45K EDDL-EGPH
Flight info
| Callsign | EZY45K |
|---|---|
| Flight time | 1h 31m |
| Altitude | 24000 |
| Route | SONEB8T SONEB P64 TENLI L602 SPY DCT GODOS DCT AGPED DCT HAVEN DCT TARTN DCT CI24 DCT FI24 |
| Aircraft | A20N/M-SDE2E3FGHIJ1RWXY/LB1 |
Departure
| Time | 2026-05-04 14:02 |
|---|---|
| Airport | Düsseldorf Airport (EDDL) |
Arrival
| Time | 2026-05-04 15:34 |
|---|---|
| Airport | Edinburgh Airport (EGPH) |
| Time | Latitude | Longitude | Altitude | Speed | Heading |
|---|---|---|---|---|---|
| 2026-05-04 13:38 | 51.27889 | 6.76334 | 128 ft | 0 kts | 50° |
| 2026-05-04 13:48 | 51.27888 | 6.76333 | 128 ft | 1 kts | 50° |
| 2026-05-04 13:49 | 51.27883 | 6.76323 | 123 ft | 1 kts | 50° |
| 2026-05-04 13:49 | 51.27878 | 6.76313 | 124 ft | 1 kts | 50° |
| 2026-05-04 13:49 | 51.27873 | 6.76304 | 125 ft | 1 kts | 50° |
| 2026-05-04 13:49 | 51.27868 | 6.76294 | 125 ft | 1 kts | 49° |
| 2026-05-04 13:50 | 51.27862 | 6.76284 | 124 ft | 1 kts | 41° |
| 2026-05-04 13:50 | 51.27856 | 6.76276 | 127 ft | 1 kts | 32° |
| 2026-05-04 13:50 | 51.27849 | 6.76269 | 127 ft | 1 kts | 15° |
| 2026-05-04 13:50 | 51.27841 | 6.76267 | 124 ft | 1 kts | 347° |
| 2026-05-04 13:51 | 51.27835 | 6.76271 | 125 ft | 1 kts | 320° |
| 2026-05-04 13:51 | 51.27835 | 6.76269 | 125 ft | 2 kts | 313° |
| 2026-05-04 13:51 | 51.27838 | 6.76256 | 124 ft | 0 kts | 279° |
| 2026-05-04 13:54 | 51.27841 | 6.76164 | 128 ft | 7 kts | 271° |
| 2026-05-04 13:54 | 51.27842 | 6.76110 | 128 ft | 5 kts | 273° |
| 2026-05-04 13:54 | 51.27933 | 6.76049 | 127 ft | 12 kts | 1° |
| 2026-05-04 13:55 | 51.28017 | 6.76049 | 123 ft | 13 kts | 359° |
| 2026-05-04 13:55 | 51.28135 | 6.76037 | 128 ft | 9 kts | 32° |
| 2026-05-04 13:55 | 51.28193 | 6.76154 | 128 ft | 16 kts | 53° |
| 2026-05-04 13:56 | 51.28258 | 6.76294 | 122 ft | 16 kts | 53° |
| 2026-05-04 13:56 | 51.28330 | 6.76445 | 122 ft | 18 kts | 52° |
| 2026-05-04 13:56 | 51.28480 | 6.76758 | 124 ft | 18 kts | 52° |
| 2026-05-04 13:57 | 51.28544 | 6.76891 | 125 ft | 7 kts | 53° |
| 2026-05-04 13:57 | 51.28581 | 6.76970 | 127 ft | 12 kts | 52° |
| 2026-05-04 13:58 | 51.28812 | 6.77452 | 126 ft | 21 kts | 52° |
| 2026-05-04 13:58 | 51.28985 | 6.77819 | 127 ft | 20 kts | 52° |
| 2026-05-04 13:58 | 51.29069 | 6.77995 | 125 ft | 20 kts | 53° |
| 2026-05-04 13:59 | 51.29149 | 6.78162 | 134 ft | 18 kts | 52° |
| 2026-05-04 13:59 | 51.29217 | 6.78303 | 140 ft | 14 kts | 52° |
| 2026-05-04 13:59 | 51.29311 | 6.78501 | 148 ft | 7 kts | 53° |
| 2026-05-04 14:00 | 51.29334 | 6.78545 | 150 ft | 4 kts | 46° |
| 2026-05-04 14:00 | 51.29351 | 6.78565 | 151 ft | 2 kts | 30° |
| 2026-05-04 14:00 | 51.29374 | 6.78575 | 152 ft | 6 kts | 7° |
| 2026-05-04 14:01 | 51.29449 | 6.78567 | 152 ft | 13 kts | 355° |
| 2026-05-04 14:01 | 51.29517 | 6.78485 | 150 ft | 15 kts | 266° |
| 2026-05-04 14:01 | 51.29117 | 6.77622 | 130 ft | 104 kts | 233° |
| 2026-05-04 14:02 | 51.28581 | 6.76505 | 129 ft | 147 kts | 232° |
| 2026-05-04 14:02 | 51.27907 | 6.75094 | 330 ft | 167 kts | 233° |
| 2026-05-04 14:02 | 51.27193 | 6.73552 | 724 ft | 180 kts | 234° |
| 2026-05-04 14:02 | 51.26413 | 6.71844 | 1080 ft | 200 kts | 233° |
| 2026-05-04 14:03 | 51.25558 | 6.70000 | 1665 ft | 213 kts | 232° |
| 2026-05-04 14:03 | 51.24746 | 6.68049 | 2589 ft | 211 kts | 249° |
| 2026-05-04 14:03 | 51.24622 | 6.65711 | 3437 ft | 219 kts | 282° |
| 2026-05-04 14:03 | 51.25341 | 6.63603 | 4302 ft | 226 kts | 315° |
| 2026-05-04 14:04 | 51.28323 | 6.62497 | 6027 ft | 233 kts | 20° |
| 2026-05-04 14:04 | 51.29668 | 6.63942 | 6723 ft | 238 kts | 53° |
| 2026-05-04 14:04 | 51.30351 | 6.66319 | 7401 ft | 241 kts | 83° |
| 2026-05-04 14:05 | 51.31559 | 6.71203 | 7702 ft | 246 kts | 40° |
| 2026-05-04 14:05 | 51.33066 | 6.72471 | 7811 ft | 248 kts | 10° |
| 2026-05-04 14:05 | 51.34837 | 6.72405 | 7968 ft | 262 kts | 344° |
| 2026-05-04 14:06 | 51.36562 | 6.71403 | 8456 ft | 264 kts | 335° |
| 2026-05-04 14:06 | 51.38246 | 6.70279 | 9423 ft | 262 kts | 341° |
| 2026-05-04 14:06 | 51.40023 | 6.69703 | 10199 ft | 267 kts | 355° |
| 2026-05-04 14:06 | 51.41889 | 6.69609 | 10922 ft | 271 kts | 358° |
| 2026-05-04 14:07 | 51.43785 | 6.69581 | 11665 ft | 274 kts | 359° |
| 2026-05-04 14:07 | 51.45699 | 6.69581 | 12413 ft | 276 kts | 359° |
| 2026-05-04 14:07 | 51.47632 | 6.69591 | 13147 ft | 280 kts | 359° |
| 2026-05-04 14:07 | 51.49589 | 6.69601 | 13868 ft | 283 kts | 359° |
| 2026-05-04 14:08 | 51.51567 | 6.69609 | 14487 ft | 287 kts | 359° |
| 2026-05-04 14:08 | 51.53577 | 6.69616 | 15112 ft | 291 kts | 359° |
| 2026-05-04 14:08 | 51.55612 | 6.69621 | 15730 ft | 294 kts | 359° |
| 2026-05-04 14:08 | 51.57645 | 6.69627 | 16331 ft | 298 kts | 359° |
| 2026-05-04 14:09 | 51.61850 | 6.69645 | 17526 ft | 306 kts | 1° |
| 2026-05-04 14:09 | 51.63990 | 6.69958 | 18125 ft | 311 kts | 5° |
| 2026-05-04 14:10 | 51.68341 | 6.70699 | 18746 ft | 316 kts | 5° |
| 2026-05-04 14:10 | 51.70530 | 6.71064 | 18870 ft | 316 kts | 5° |
| 2026-05-04 14:10 | 51.72715 | 6.71429 | 19003 ft | 318 kts | 4° |
| 2026-05-04 14:10 | 51.74950 | 6.71801 | 19224 ft | 330 kts | 4° |
| 2026-05-04 14:11 | 51.77288 | 6.72191 | 19414 ft | 346 kts | 4° |
| 2026-05-04 14:11 | 51.82274 | 6.73025 | 19720 ft | 378 kts | 4° |
| 2026-05-04 14:11 | 51.84945 | 6.73474 | 19878 ft | 394 kts | 4° |
| 2026-05-04 14:12 | 51.87722 | 6.73942 | 20054 ft | 408 kts | 4° |
| 2026-05-04 14:12 | 51.90590 | 6.74426 | 20199 ft | 422 kts | 4° |
| 2026-05-04 14:12 | 51.96608 | 6.75275 | 20592 ft | 442 kts | 356° |
| 2026-05-04 14:13 | 51.98220 | 6.75055 | 20827 ft | 442 kts | 349° |
| 2026-05-04 14:13 | 51.98247 | 6.75049 | 20830 ft | 442 kts | 348° |
| 2026-05-04 14:13 | 52.01165 | 6.73787 | 21285 ft | 441 kts | 335° |
| 2026-05-04 14:13 | 52.03861 | 6.71467 | 21757 ft | 439 kts | 322° |
| 2026-05-04 14:14 | 52.06152 | 6.68233 | 22218 ft | 436 kts | 308° |
| 2026-05-04 14:14 | 52.09715 | 6.60167 | 22717 ft | 447 kts | 300° |
| 2026-05-04 14:14 | 52.11441 | 6.55923 | 23135 ft | 451 kts | 300° |
| 2026-05-04 14:15 | 52.14998 | 6.47451 | 23619 ft | 465 kts | 301° |
| 2026-05-04 14:15 | 52.18746 | 6.38747 | 23928 ft | 470 kts | 302° |
| 2026-05-04 14:16 | 52.22506 | 6.30022 | 23964 ft | 470 kts | 300° |
| 2026-05-04 14:16 | 52.24186 | 6.25478 | 23964 ft | 467 kts | 294° |
| 2026-05-04 14:17 | 52.26652 | 6.15741 | 23963 ft | 463 kts | 286° |
| 2026-05-04 14:17 | 52.27723 | 6.10775 | 23965 ft | 467 kts | 286° |
| 2026-05-04 14:17 | 52.29889 | 6.00802 | 23966 ft | 469 kts | 286° |
| 2026-05-04 14:18 | 52.30976 | 5.95769 | 23967 ft | 469 kts | 286° |
| 2026-05-04 14:18 | 52.33132 | 5.85713 | 23980 ft | 469 kts | 286° |
| 2026-05-04 14:19 | 52.35274 | 5.75655 | 23986 ft | 468 kts | 286° |
| 2026-05-04 14:19 | 52.36341 | 5.70629 | 23988 ft | 468 kts | 286° |
| 2026-05-04 14:19 | 52.37406 | 5.65595 | 23991 ft | 467 kts | 286° |
| 2026-05-04 14:19 | 52.38466 | 5.60579 | 23994 ft | 467 kts | 286° |
| 2026-05-04 14:20 | 52.39525 | 5.55553 | 23996 ft | 466 kts | 286° |
| 2026-05-04 14:20 | 52.40565 | 5.50600 | 23997 ft | 466 kts | 286° |
| 2026-05-04 14:20 | 52.41617 | 5.45583 | 23993 ft | 465 kts | 286° |
| 2026-05-04 14:21 | 52.43705 | 5.35583 | 23992 ft | 463 kts | 286° |
| 2026-05-04 14:21 | 52.44745 | 5.30585 | 23993 ft | 462 kts | 286° |
| 2026-05-04 14:21 | 52.45780 | 5.25599 | 23990 ft | 462 kts | 286° |
| 2026-05-04 14:21 | 52.46811 | 5.20618 | 23991 ft | 461 kts | 286° |
| 2026-05-04 14:22 | 52.47840 | 5.15638 | 23985 ft | 460 kts | 286° |
| 2026-05-04 14:22 | 52.48863 | 5.10675 | 23990 ft | 459 kts | 286° |
| 2026-05-04 14:22 | 52.49869 | 5.05777 | 23985 ft | 459 kts | 286° |
| 2026-05-04 14:22 | 52.50884 | 5.00822 | 23990 ft | 458 kts | 286° |
| 2026-05-04 14:23 | 52.52969 | 4.90938 | 23991 ft | 458 kts | 290° |
| 2026-05-04 14:23 | 52.54345 | 4.86217 | 23990 ft | 459 kts | 296° |
| 2026-05-04 14:23 | 52.56037 | 4.81752 | 23989 ft | 461 kts | 302° |
| 2026-05-04 14:24 | 52.58015 | 4.77591 | 23992 ft | 463 kts | 307° |
| 2026-05-04 14:24 | 52.60088 | 4.73554 | 23988 ft | 462 kts | 307° |
| 2026-05-04 14:24 | 52.62150 | 4.69503 | 23997 ft | 462 kts | 307° |
| 2026-05-04 14:24 | 52.64178 | 4.65503 | 23999 ft | 461 kts | 307° |
| 2026-05-04 14:25 | 52.66234 | 4.61446 | 24000 ft | 461 kts | 307° |
| 2026-05-04 14:25 | 52.70328 | 4.53352 | 24001 ft | 460 kts | 306° |
| 2026-05-04 14:25 | 52.72373 | 4.49302 | 24001 ft | 459 kts | 306° |
| 2026-05-04 14:26 | 52.74417 | 4.45250 | 23998 ft | 459 kts | 306° |
| 2026-05-04 14:26 | 52.76455 | 4.41201 | 23996 ft | 459 kts | 306° |
| 2026-05-04 14:26 | 52.78494 | 4.37144 | 23995 ft | 459 kts | 306° |
| 2026-05-04 14:26 | 52.80530 | 4.33085 | 23992 ft | 458 kts | 306° |
| 2026-05-04 14:27 | 52.82537 | 4.29079 | 23992 ft | 458 kts | 306° |
| 2026-05-04 14:27 | 52.84558 | 4.25041 | 24000 ft | 450 kts | 306° |
| 2026-05-04 14:27 | 52.86507 | 4.21150 | 24004 ft | 429 kts | 306° |
| 2026-05-04 14:27 | 52.88365 | 4.17435 | 24004 ft | 408 kts | 306° |
| 2026-05-04 14:28 | 52.90128 | 4.13901 | 24005 ft | 389 kts | 305° |
| 2026-05-04 14:28 | 52.91812 | 4.10516 | 24002 ft | 371 kts | 305° |
| 2026-05-04 14:28 | 52.93414 | 4.07292 | 24005 ft | 354 kts | 305° |
| 2026-05-04 14:28 | 52.94939 | 4.04216 | 24005 ft | 338 kts | 304° |
| 2026-05-04 14:29 | 52.97959 | 3.98081 | 24006 ft | 351 kts | 305° |
| 2026-05-04 14:29 | 53.01038 | 3.91839 | 24013 ft | 349 kts | 305° |
| 2026-05-04 14:30 | 53.02577 | 3.88717 | 24012 ft | 350 kts | 305° |
| 2026-05-04 14:30 | 53.04116 | 3.85591 | 24017 ft | 350 kts | 305° |
| 2026-05-04 14:30 | 53.07197 | 3.79322 | 24017 ft | 351 kts | 305° |
| 2026-05-04 14:31 | 53.08739 | 3.76177 | 24023 ft | 351 kts | 305° |
| 2026-05-04 14:31 | 53.11802 | 3.69922 | 24028 ft | 351 kts | 305° |
| 2026-05-04 14:32 | 53.14887 | 3.63602 | 24025 ft | 352 kts | 305° |
| 2026-05-04 14:32 | 53.16431 | 3.60436 | 24030 ft | 352 kts | 305° |
| 2026-05-04 14:32 | 53.17976 | 3.57261 | 24027 ft | 352 kts | 305° |
| 2026-05-04 14:32 | 53.19520 | 3.54085 | 24033 ft | 353 kts | 305° |
| 2026-05-04 14:33 | 53.21067 | 3.50899 | 24039 ft | 354 kts | 305° |
| 2026-05-04 14:33 | 53.22616 | 3.47704 | 24028 ft | 354 kts | 305° |
| 2026-05-04 14:33 | 53.24163 | 3.44512 | 24029 ft | 354 kts | 305° |
| 2026-05-04 14:33 | 53.25592 | 3.41246 | 24032 ft | 352 kts | 299° |
| 2026-05-04 14:34 | 53.26923 | 3.37802 | 24038 ft | 353 kts | 300° |
| 2026-05-04 14:34 | 53.28267 | 3.34377 | 24035 ft | 353 kts | 300° |
| 2026-05-04 14:34 | 53.29622 | 3.30940 | 24029 ft | 354 kts | 300° |
| 2026-05-04 14:34 | 53.30976 | 3.27505 | 24032 ft | 354 kts | 300° |
| 2026-05-04 14:35 | 53.32331 | 3.24058 | 24035 ft | 355 kts | 300° |
| 2026-05-04 14:35 | 53.33685 | 3.20604 | 24033 ft | 355 kts | 300° |
| 2026-05-04 14:35 | 53.35038 | 3.17145 | 24029 ft | 356 kts | 300° |
| 2026-05-04 14:35 | 53.36393 | 3.13674 | 24031 ft | 356 kts | 300° |
| 2026-05-04 14:36 | 53.37730 | 3.10245 | 24037 ft | 357 kts | 300° |
| 2026-05-04 14:36 | 53.39082 | 3.06769 | 24034 ft | 357 kts | 300° |
| 2026-05-04 14:36 | 53.40439 | 3.03277 | 24029 ft | 357 kts | 300° |
| 2026-05-04 14:36 | 53.41793 | 2.99786 | 24028 ft | 358 kts | 300° |
| 2026-05-04 14:37 | 53.43150 | 2.96285 | 24033 ft | 358 kts | 301° |
| 2026-05-04 14:37 | 53.44505 | 2.92783 | 24030 ft | 358 kts | 301° |
| 2026-05-04 14:37 | 53.45863 | 2.89268 | 24034 ft | 359 kts | 301° |
| 2026-05-04 14:37 | 53.47219 | 2.85753 | 24032 ft | 359 kts | 301° |
| 2026-05-04 14:38 | 53.48578 | 2.82226 | 24035 ft | 360 kts | 301° |
| 2026-05-04 14:38 | 53.49936 | 2.78694 | 24031 ft | 360 kts | 301° |
| 2026-05-04 14:38 | 53.51276 | 2.75206 | 24039 ft | 361 kts | 301° |
| 2026-05-04 14:38 | 53.52638 | 2.71656 | 24035 ft | 361 kts | 301° |
| 2026-05-04 14:39 | 53.53997 | 2.68109 | 24036 ft | 361 kts | 301° |
| 2026-05-04 14:39 | 53.55357 | 2.64554 | 24035 ft | 362 kts | 301° |
| 2026-05-04 14:39 | 53.56717 | 2.60996 | 24033 ft | 362 kts | 301° |
| 2026-05-04 14:40 | 53.59439 | 2.53856 | 24037 ft | 363 kts | 301° |
| 2026-05-04 14:40 | 53.60798 | 2.50284 | 24036 ft | 362 kts | 301° |
| 2026-05-04 14:40 | 53.62157 | 2.46708 | 24038 ft | 363 kts | 301° |
| 2026-05-04 14:40 | 53.63516 | 2.43124 | 24041 ft | 363 kts | 301° |
| 2026-05-04 14:41 | 53.64858 | 2.39583 | 24037 ft | 363 kts | 301° |
| 2026-05-04 14:41 | 53.66216 | 2.35993 | 24038 ft | 363 kts | 301° |
| 2026-05-04 14:41 | 53.68932 | 2.28798 | 24039 ft | 364 kts | 301° |
| 2026-05-04 14:42 | 53.71646 | 2.21586 | 24044 ft | 365 kts | 302° |
| 2026-05-04 14:42 | 53.73005 | 2.17966 | 24043 ft | 365 kts | 302° |
| 2026-05-04 14:42 | 53.73907 | 2.15563 | 24044 ft | 366 kts | 302° |
| 2026-05-04 14:43 | 53.75266 | 2.11935 | 24045 ft | 366 kts | 302° |
| 2026-05-04 14:43 | 53.76628 | 2.08295 | 24046 ft | 366 kts | 302° |
| 2026-05-04 14:43 | 53.78429 | 2.03473 | 24044 ft | 367 kts | 302° |
| 2026-05-04 14:43 | 53.79793 | 1.99816 | 24044 ft | 367 kts | 302° |
| 2026-05-04 14:44 | 53.81154 | 1.96159 | 24051 ft | 367 kts | 302° |
| 2026-05-04 14:44 | 53.82514 | 1.92501 | 24048 ft | 367 kts | 302° |
| 2026-05-04 14:44 | 53.83413 | 1.90078 | 24049 ft | 368 kts | 302° |
| 2026-05-04 14:44 | 53.84774 | 1.86410 | 24048 ft | 368 kts | 302° |
| 2026-05-04 14:45 | 53.86135 | 1.82734 | 24048 ft | 368 kts | 302° |
| 2026-05-04 14:45 | 53.87494 | 1.79058 | 24050 ft | 368 kts | 302° |
| 2026-05-04 14:45 | 53.88853 | 1.75378 | 24048 ft | 368 kts | 302° |
| 2026-05-04 14:45 | 53.90650 | 1.70503 | 24051 ft | 368 kts | 302° |
| 2026-05-04 14:46 | 53.91565 | 1.68018 | 24050 ft | 368 kts | 302° |
| 2026-05-04 14:46 | 53.92921 | 1.64328 | 24050 ft | 369 kts | 302° |
| 2026-05-04 14:46 | 53.94275 | 1.60639 | 24055 ft | 369 kts | 302° |
| 2026-05-04 14:46 | 53.95613 | 1.56988 | 24051 ft | 369 kts | 302° |
| 2026-05-04 14:47 | 53.96964 | 1.53295 | 24051 ft | 368 kts | 302° |
| 2026-05-04 14:47 | 53.98315 | 1.49598 | 24051 ft | 368 kts | 302° |
| 2026-05-04 14:47 | 53.99665 | 1.45899 | 24050 ft | 368 kts | 302° |
| 2026-05-04 14:47 | 54.01013 | 1.42198 | 24053 ft | 369 kts | 302° |
| 2026-05-04 14:48 | 54.02363 | 1.38487 | 24055 ft | 369 kts | 302° |
| 2026-05-04 14:48 | 54.03712 | 1.34775 | 24055 ft | 369 kts | 302° |
| 2026-05-04 14:48 | 54.05058 | 1.31063 | 24054 ft | 369 kts | 302° |
| 2026-05-04 14:48 | 54.06389 | 1.27389 | 24054 ft | 369 kts | 302° |
| 2026-05-04 14:49 | 54.07751 | 1.23623 | 24053 ft | 369 kts | 302° |
| 2026-05-04 14:49 | 54.09077 | 1.19951 | 24053 ft | 369 kts | 302° |
| 2026-05-04 14:49 | 54.10422 | 1.16219 | 24053 ft | 369 kts | 302° |
| 2026-05-04 14:49 | 54.11761 | 1.12498 | 24054 ft | 369 kts | 302° |
| 2026-05-04 14:50 | 54.13101 | 1.08770 | 24053 ft | 369 kts | 302° |
| 2026-05-04 14:50 | 54.14441 | 1.05038 | 24053 ft | 369 kts | 302° |
| 2026-05-04 14:50 | 54.15780 | 1.01304 | 24056 ft | 369 kts | 301° |
| 2026-05-04 14:50 | 54.17118 | 0.97565 | 23962 ft | 370 kts | 301° |
| 2026-05-04 14:51 | 54.18457 | 0.93819 | 23721 ft | 368 kts | 301° |
| 2026-05-04 14:51 | 54.19767 | 0.90150 | 23467 ft | 366 kts | 301° |
| 2026-05-04 14:51 | 54.21084 | 0.86453 | 23188 ft | 363 kts | 301° |
| 2026-05-04 14:51 | 54.22393 | 0.82772 | 22914 ft | 361 kts | 301° |
| 2026-05-04 14:52 | 54.23694 | 0.79110 | 22630 ft | 360 kts | 301° |
| 2026-05-04 14:52 | 54.24988 | 0.75463 | 22371 ft | 358 kts | 301° |
| 2026-05-04 14:52 | 54.26274 | 0.71831 | 22096 ft | 356 kts | 301° |
| 2026-05-04 14:52 | 54.27552 | 0.68218 | 21842 ft | 354 kts | 301° |
| 2026-05-04 14:53 | 54.28823 | 0.64618 | 21577 ft | 352 kts | 301° |
| 2026-05-04 14:53 | 54.30084 | 0.61042 | 21316 ft | 350 kts | 301° |
| 2026-05-04 14:53 | 54.31340 | 0.57475 | 21059 ft | 348 kts | 301° |
| 2026-05-04 14:53 | 54.32570 | 0.53977 | 20808 ft | 347 kts | 301° |
| 2026-05-04 14:54 | 54.33811 | 0.50441 | 20555 ft | 345 kts | 300° |
| 2026-05-04 14:54 | 54.35045 | 0.46922 | 20304 ft | 344 kts | 300° |
| 2026-05-04 14:54 | 54.36271 | 0.43417 | 20057 ft | 342 kts | 300° |
| 2026-05-04 14:54 | 54.37491 | 0.39927 | 19809 ft | 340 kts | 300° |
| 2026-05-04 14:55 | 54.38704 | 0.36452 | 19564 ft | 339 kts | 300° |
| 2026-05-04 14:55 | 54.39900 | 0.33022 | 19428 ft | 330 kts | 300° |
| 2026-05-04 14:55 | 54.41053 | 0.29710 | 19336 ft | 318 kts | 300° |
| 2026-05-04 14:55 | 54.42169 | 0.26499 | 19140 ft | 310 kts | 300° |
| 2026-05-04 14:56 | 54.43262 | 0.23350 | 18887 ft | 306 kts | 300° |
| 2026-05-04 14:56 | 54.44339 | 0.20242 | 18655 ft | 308 kts | 300° |
| 2026-05-04 14:56 | 54.45435 | 0.17077 | 18416 ft | 308 kts | 300° |
| 2026-05-04 14:56 | 54.46523 | 0.13929 | 18154 ft | 305 kts | 300° |
| 2026-05-04 14:57 | 54.47601 | 0.10810 | 17876 ft | 303 kts | 300° |
| 2026-05-04 14:57 | 54.48672 | 0.07704 | 17614 ft | 301 kts | 300° |
| 2026-05-04 14:57 | 54.49738 | 0.04608 | 17348 ft | 300 kts | 300° |
| 2026-05-04 14:57 | 54.50799 | 0.01524 | 17084 ft | 299 kts | 300° |
| 2026-05-04 14:58 | 54.51855 | -0.01549 | 16819 ft | 297 kts | 300° |
| 2026-05-04 14:58 | 54.52903 | -0.04603 | 16561 ft | 296 kts | 300° |
| 2026-05-04 14:58 | 54.53934 | -0.07610 | 16310 ft | 295 kts | 299° |
| 2026-05-04 14:58 | 54.54974 | -0.10647 | 16054 ft | 294 kts | 299° |
| 2026-05-04 14:59 | 54.56008 | -0.13672 | 15799 ft | 292 kts | 299° |
| 2026-05-04 14:59 | 54.57036 | -0.16682 | 15551 ft | 291 kts | 299° |
| 2026-05-04 14:59 | 54.59077 | -0.22669 | 15109 ft | 287 kts | 299° |
| 2026-05-04 15:00 | 54.60085 | -0.25632 | 15050 ft | 287 kts | 299° |
| 2026-05-04 15:00 | 54.61097 | -0.28611 | 15043 ft | 289 kts | 299° |
| 2026-05-04 15:00 | 54.62112 | -0.31601 | 15040 ft | 289 kts | 299° |
| 2026-05-04 15:01 | 54.64122 | -0.37535 | 15040 ft | 288 kts | 299° |
| 2026-05-04 15:01 | 54.65134 | -0.40526 | 15039 ft | 288 kts | 299° |
| 2026-05-04 15:01 | 54.66144 | -0.43516 | 15043 ft | 288 kts | 299° |
| 2026-05-04 15:01 | 54.67154 | -0.46509 | 15038 ft | 288 kts | 299° |
| 2026-05-04 15:02 | 54.68162 | -0.49501 | 15034 ft | 288 kts | 299° |
| 2026-05-04 15:02 | 54.69170 | -0.52493 | 15033 ft | 288 kts | 299° |
| 2026-05-04 15:02 | 54.70179 | -0.55492 | 15036 ft | 288 kts | 299° |
| 2026-05-04 15:02 | 54.71186 | -0.58485 | 15035 ft | 288 kts | 299° |
| 2026-05-04 15:03 | 54.72192 | -0.61480 | 15032 ft | 288 kts | 299° |
| 2026-05-04 15:03 | 54.73184 | -0.64436 | 15031 ft | 288 kts | 299° |
| 2026-05-04 15:03 | 54.74164 | -0.67456 | 15032 ft | 288 kts | 295° |
| 2026-05-04 15:03 | 54.75068 | -0.70548 | 15031 ft | 288 kts | 297° |
| 2026-05-04 15:04 | 54.76010 | -0.73613 | 15029 ft | 288 kts | 297° |
| 2026-05-04 15:04 | 54.76958 | -0.76666 | 15029 ft | 288 kts | 297° |
| 2026-05-04 15:04 | 54.77905 | -0.79725 | 15025 ft | 288 kts | 297° |
| 2026-05-04 15:04 | 54.78845 | -0.82785 | 15020 ft | 288 kts | 297° |
| 2026-05-04 15:05 | 54.79781 | -0.85853 | 15025 ft | 288 kts | 297° |
| 2026-05-04 15:05 | 54.80714 | -0.88920 | 15017 ft | 288 kts | 297° |
| 2026-05-04 15:05 | 54.81634 | -0.91951 | 15022 ft | 288 kts | 297° |
| 2026-05-04 15:05 | 54.82564 | -0.95022 | 15021 ft | 288 kts | 297° |
| 2026-05-04 15:06 | 54.83495 | -0.98096 | 15018 ft | 288 kts | 297° |
| 2026-05-04 15:06 | 54.84423 | -1.01168 | 15023 ft | 288 kts | 297° |
| 2026-05-04 15:06 | 54.85352 | -1.04243 | 15014 ft | 288 kts | 297° |
| 2026-05-04 15:07 | 54.87205 | -1.10393 | 15021 ft | 287 kts | 297° |
| 2026-05-04 15:07 | 54.88131 | -1.13471 | 15021 ft | 288 kts | 296° |
| 2026-05-04 15:07 | 54.89057 | -1.16553 | 15017 ft | 288 kts | 296° |
| 2026-05-04 15:07 | 54.89969 | -1.19595 | 15013 ft | 288 kts | 296° |
| 2026-05-04 15:08 | 54.90892 | -1.22675 | 15015 ft | 287 kts | 296° |
| 2026-05-04 15:08 | 54.91815 | -1.25758 | 15016 ft | 288 kts | 296° |
| 2026-05-04 15:08 | 54.92736 | -1.28841 | 15016 ft | 288 kts | 296° |
| 2026-05-04 15:08 | 54.93660 | -1.31937 | 15017 ft | 288 kts | 296° |
| 2026-05-04 15:09 | 54.94579 | -1.35021 | 15018 ft | 288 kts | 296° |
| 2026-05-04 15:09 | 54.95499 | -1.38111 | 15017 ft | 288 kts | 296° |
| 2026-05-04 15:09 | 54.96419 | -1.41206 | 15020 ft | 288 kts | 296° |
| 2026-05-04 15:10 | 54.98240 | -1.47345 | 15019 ft | 287 kts | 296° |
| 2026-05-04 15:10 | 54.99155 | -1.50434 | 15017 ft | 287 kts | 296° |
| 2026-05-04 15:10 | 55.00984 | -1.56623 | 15019 ft | 287 kts | 296° |
| 2026-05-04 15:11 | 55.01896 | -1.59714 | 15020 ft | 287 kts | 296° |
| 2026-05-04 15:11 | 55.02808 | -1.62809 | 15020 ft | 287 kts | 296° |
| 2026-05-04 15:11 | 55.03719 | -1.65905 | 15019 ft | 287 kts | 296° |
| 2026-05-04 15:11 | 55.04628 | -1.69000 | 15020 ft | 287 kts | 296° |
| 2026-05-04 15:12 | 55.05525 | -1.72056 | 15021 ft | 287 kts | 296° |
| 2026-05-04 15:12 | 55.06432 | -1.75151 | 15021 ft | 286 kts | 296° |
| 2026-05-04 15:12 | 55.07339 | -1.78251 | 15020 ft | 287 kts | 296° |
| 2026-05-04 15:12 | 55.08243 | -1.81345 | 15021 ft | 286 kts | 296° |
| 2026-05-04 15:13 | 55.09147 | -1.84444 | 15019 ft | 286 kts | 296° |
| 2026-05-04 15:13 | 55.10049 | -1.87537 | 15018 ft | 286 kts | 296° |
| 2026-05-04 15:13 | 55.10951 | -1.90634 | 15018 ft | 286 kts | 296° |
| 2026-05-04 15:13 | 55.11848 | -1.93721 | 15017 ft | 286 kts | 296° |
| 2026-05-04 15:14 | 55.12752 | -1.96778 | 15015 ft | 287 kts | 298° |
| 2026-05-04 15:14 | 55.13737 | -1.99804 | 15014 ft | 286 kts | 299° |
| 2026-05-04 15:14 | 55.14747 | -2.02788 | 15017 ft | 285 kts | 300° |
| 2026-05-04 15:14 | 55.15757 | -2.05775 | 15013 ft | 286 kts | 299° |
| 2026-05-04 15:15 | 55.16762 | -2.08779 | 15014 ft | 286 kts | 299° |
| 2026-05-04 15:15 | 55.17761 | -2.11791 | 15011 ft | 286 kts | 299° |
| 2026-05-04 15:15 | 55.18751 | -2.14800 | 15010 ft | 286 kts | 299° |
| 2026-05-04 15:16 | 55.20726 | -2.20824 | 15014 ft | 285 kts | 298° |
| 2026-05-04 15:16 | 55.21701 | -2.23805 | 15013 ft | 286 kts | 298° |
| 2026-05-04 15:16 | 55.23670 | -2.29833 | 15015 ft | 285 kts | 298° |
| 2026-05-04 15:17 | 55.24654 | -2.32852 | 15013 ft | 285 kts | 298° |
| 2026-05-04 15:17 | 55.26620 | -2.38890 | 15013 ft | 285 kts | 298° |
| 2026-05-04 15:17 | 55.27600 | -2.41905 | 15013 ft | 285 kts | 298° |
| 2026-05-04 15:18 | 55.28579 | -2.44922 | 15016 ft | 285 kts | 298° |
| 2026-05-04 15:18 | 55.29559 | -2.47944 | 15015 ft | 285 kts | 298° |
| 2026-05-04 15:18 | 55.30537 | -2.50965 | 15010 ft | 284 kts | 298° |
| 2026-05-04 15:19 | 55.32476 | -2.56967 | 15010 ft | 284 kts | 298° |
| 2026-05-04 15:19 | 55.33449 | -2.59986 | 15013 ft | 285 kts | 298° |
| 2026-05-04 15:19 | 55.35401 | -2.66054 | 14910 ft | 287 kts | 298° |
| 2026-05-04 15:20 | 55.36379 | -2.69100 | 14690 ft | 284 kts | 298° |
| 2026-05-04 15:20 | 55.37343 | -2.72103 | 14471 ft | 281 kts | 298° |
| 2026-05-04 15:20 | 55.38303 | -2.75095 | 14260 ft | 281 kts | 298° |
| 2026-05-04 15:20 | 55.39263 | -2.78097 | 14038 ft | 281 kts | 298° |
| 2026-05-04 15:21 | 55.40216 | -2.81080 | 13829 ft | 278 kts | 298° |
| 2026-05-04 15:21 | 55.41150 | -2.84005 | 13595 ft | 278 kts | 298° |
| 2026-05-04 15:21 | 55.43031 | -2.89911 | 13047 ft | 275 kts | 298° |
| 2026-05-04 15:22 | 55.43963 | -2.92839 | 12686 ft | 273 kts | 298° |
| 2026-05-04 15:22 | 55.44887 | -2.95750 | 12311 ft | 272 kts | 298° |
| 2026-05-04 15:22 | 55.47507 | -3.00387 | 11526 ft | 275 kts | 334° |
| 2026-05-04 15:23 | 55.49329 | -3.01433 | 11158 ft | 275 kts | 340° |
| 2026-05-04 15:23 | 55.51155 | -3.02421 | 10806 ft | 274 kts | 339° |
| 2026-05-04 15:23 | 55.52948 | -3.03401 | 10445 ft | 273 kts | 339° |
| 2026-05-04 15:23 | 55.54780 | -3.04410 | 10086 ft | 272 kts | 339° |
| 2026-05-04 15:24 | 55.58337 | -3.06379 | 9376 ft | 268 kts | 339° |
| 2026-05-04 15:24 | 55.61885 | -3.08358 | 8647 ft | 266 kts | 339° |
| 2026-05-04 15:25 | 55.63646 | -3.09338 | 8325 ft | 264 kts | 339° |
| 2026-05-04 15:25 | 55.65395 | -3.10315 | 8009 ft | 263 kts | 339° |
| 2026-05-04 15:25 | 55.67136 | -3.11285 | 7692 ft | 260 kts | 339° |
| 2026-05-04 15:26 | 55.70519 | -3.13166 | 7173 ft | 253 kts | 340° |
| 2026-05-04 15:26 | 55.72259 | -3.13630 | 6853 ft | 257 kts | 356° |
| 2026-05-04 15:26 | 55.75814 | -3.12818 | 6201 ft | 256 kts | 4° |
| 2026-05-04 15:27 | 55.77549 | -3.12379 | 5863 ft | 255 kts | 4° |
| 2026-05-04 15:27 | 55.81058 | -3.11499 | 5196 ft | 254 kts | 4° |
| 2026-05-04 15:28 | 55.84553 | -3.10628 | 4536 ft | 254 kts | 4° |
| 2026-05-04 15:28 | 55.86302 | -3.10188 | 4198 ft | 253 kts | 4° |
| 2026-05-04 15:28 | 55.89784 | -3.09319 | 3525 ft | 251 kts | 4° |
| 2026-05-04 15:29 | 55.91495 | -3.08976 | 3213 ft | 251 kts | 3° |
| 2026-05-04 15:30 | 55.97090 | -3.11869 | 2997 ft | 191 kts | 324° |
| 2026-05-04 15:30 | 55.99965 | -3.16433 | 2994 ft | 164 kts | 278° |
| 2026-05-04 15:31 | 55.99599 | -3.20480 | 2860 ft | 167 kts | 256° |
| 2026-05-04 15:31 | 55.99290 | -3.22462 | 2514 ft | 163 kts | 256° |
| 2026-05-04 15:32 | 55.98207 | -3.27784 | 1516 ft | 140 kts | 243° |
| 2026-05-04 15:32 | 55.97181 | -3.30822 | 868 ft | 148 kts | 242° |
| 2026-05-04 15:33 | 55.96150 | -3.33864 | 427 ft | 146 kts | 241° |
| 2026-05-04 15:34 | 55.94882 | -3.37601 | 112 ft | 28 kts | 239° |
| 2026-05-04 15:34 | 55.94790 | -3.37883 | 114 ft | 23 kts | 238° |
| 2026-05-04 15:34 | 55.94663 | -3.38027 | 113 ft | 10 kts | 149° |
| 2026-05-04 15:35 | 55.94623 | -3.37984 | 114 ft | 0 kts | 148° |
| 2026-05-04 15:35 | 55.94620 | -3.37981 | 114 ft | 3 kts | 148° |
| 2026-05-04 15:36 | 55.94609 | -3.37819 | 115 ft | 12 kts | 57° |
| 2026-05-04 15:36 | 55.94662 | -3.37673 | 115 ft | 16 kts | 58° |
| 2026-05-04 15:36 | 55.94723 | -3.37495 | 116 ft | 18 kts | 58° |
| 2026-05-04 15:37 | 55.94794 | -3.37284 | 115 ft | 21 kts | 58° |
| 2026-05-04 15:37 | 55.94869 | -3.37064 | 115 ft | 19 kts | 59° |
| 2026-05-04 15:37 | 55.94926 | -3.36887 | 112 ft | 12 kts | 73° |
| 2026-05-04 15:37 | 55.94895 | -3.36750 | 116 ft | 11 kts | 70° |
| 2026-05-04 15:38 | 55.94940 | -3.36615 | 116 ft | 11 kts | 59° |
| 2026-05-04 15:38 | 55.94947 | -3.36537 | 114 ft | 7 kts | 134° |
| 2026-05-04 15:38 | 55.94922 | -3.36514 | 115 ft | 2 kts | 152° |
| 2026-05-04 15:38 | 55.94900 | -3.36490 | 114 ft | 0 kts | 148° |